Time;durP1;ratioP1;P1;durP2;ratioP2;P2;SDS_P1;SDS_P2;PMS_P1;PMS_P2;Temp;Humidity;BMP_temperature;BMP_pressure;BME280_temperature;BME280_humidity;BME280_pressure;Samples;Min_cycle;Max_cycle;Signal;HPM_P1;HPM_P2
2022/01/17 00:02:19;;;;;;;;;;;;;;;4.09;92.20;102347.09;5033260;27;19978;-69
2022/01/17 00:04:44;;;;;;;;;;;;;;;4.10;91.90;102333.09;5031350;27;20050;-69
2022/01/17 00:07:09;;;;;;;;;;;;;;;4.15;91.73;102334.69;5042798;27;20250;-68
2022/01/17 00:09:35;;;;;;;;;;;;;;;4.27;91.47;102335.09;5052487;27;20114;-68
2022/01/17 00:12:00;;;;;;;;;;;;;;;4.07;92.21;102334.94;5053150;27;19903;-67
2022/01/17 00:14:32;;;;;;;;;;;;;;;4.06;92.39;102331.47;5050639;27;20004;-68
2022/01/17 00:17:10;;;;;;;;;;;;;;;4.11;93.09;102331.31;5036154;27;20242;-68
2022/01/17 00:19:42;;;;;;;;;;;;;;;4.05;93.21;102337.63;5034771;27;19918;-68
2022/01/17 00:22:08;;;;;;;;;;;;;;;4.07;93.21;102342.81;5029789;27;20423;-68
2022/01/17 00:24:33;;;;;;;;;;;;;;;4.08;93.33;102349.75;5030778;27;20804;-68
2022/01/17 00:26:58;;;;;;;;;;;;;;;4.13;92.64;102348.69;5035902;27;19961;-68
2022/01/17 00:29:23;;;;;;;;;;;;;;;4.20;93.00;102361.56;5030275;27;19904;-68
2022/01/17 00:31:49;;;;;;;;;;;;;;;4.12;92.54;102367.94;5033536;27;19908;-67
2022/01/17 00:34:14;;;;;;;;;;;;;;;4.16;92.59;102375.66;5036723;27;20610;-67
2022/01/17 00:36:39;;;;;;;;;;;;;;;4.20;92.55;102369.41;5041958;27;20777;-69
2022/01/17 00:39:04;;;;;;;;;;;;;;;4.11;93.16;102373.22;5051779;27;20771;-70
2022/01/17 00:41:30;;;;;;;;;;;;;;;4.02;93.67;102377.03;5053053;27;20039;-68
2022/01/17 00:43:55;;;;;;;;;;;;;;;4.08;94.02;102383.81;5028906;27;20743;-67
2022/01/17 00:46:20;;;;;;;;;;;;;;;4.15;93.80;102392.31;5055223;27;20825;-68
2022/01/17 00:48:46;;;;;;;;;;;;;;;4.06;93.50;102404.84;5053920;27;19919;-67
2022/01/17 00:51:11;;;;;;;;;;;;;;;4.06;93.41;102412.69;5060613;27;19963;-67
2022/01/17 00:53:37;;;;;;;;;;;;;;;4.05;93.60;102416.22;5050727;27;19952;-67
2022/01/17 00:56:03;;;;;;;;;;;;;;;4.03;93.62;102411.94;5050434;27;20004;-66
2022/01/17 00:58:28;;;;;;;;;;;;;;;4.01;93.82;102404.13;5032484;27;20123;-67
2022/01/17 01:00:53;;;;;;;;;;;;;;;4.07;94.02;102398.66;5030745;27;20381;-68
2022/01/17 01:03:18;;;;;;;;;;;;;;;4.05;94.00;102400.50;5034529;27;20293;-67
2022/01/17 01:05:44;;;;;;;;;;;;;;;4.03;94.32;102391.81;5063123;27;19919;-67
2022/01/17 01:08:09;;;;;;;;;;;;;;;4.05;94.24;102376.91;5047103;27;19923;-69
2022/01/17 01:10:34;;;;;;;;;;;;;;;4.12;93.95;102381.03;5051572;27;19907;-67
2022/01/17 01:12:59;;;;;;;;;;;;;;;4.18;94.21;102374.72;5052181;27;19982;-66
2022/01/17 01:18:37;;;;;;;;;;;;;;;4.27;93.28;102400.59;4980414;27;19900;-67
2022/01/17 01:27:41;;;;;;;;;;;;;;;4.24;93.81;102402.47;5028347;28;20256;-67
2022/01/17 01:29:44;;;;;;;;;;;;;;;4.23;94.41;102433.06;5070818;27;20253;-67
2022/01/17 01:32:10;;;;;;;;;;;;;;;4.28;93.91;102425.88;5050457;27;20881;-68
2022/01/17 01:34:40;;;;;;;;;;;;;;;4.23;93.53;102419.09;5070264;27;20175;-69
2022/01/17 01:37:06;;;;;;;;;;;;;;;4.22;93.53;102417.38;5058092;27;19903;-69
2022/01/17 01:39:31;;;;;;;;;;;;;;;4.19;94.27;102412.22;5030130;27;20421;-70
2022/01/17 01:41:57;;;;;;;;;;;;;;;4.24;94.29;102398.06;5047812;27;19999;-69
2022/01/17 01:44:23;;;;;;;;;;;;;;;4.32;93.98;102402.19;5030271;27;19926;-67
2022/01/17 01:46:48;;;;;;;;;;;;;;;4.35;93.73;102395.06;5032451;27;19976;-65
2022/01/17 01:49:14;;;;;;;;;;;;;;;4.34;93.38;102393.34;5051160;27;19911;-67
2022/01/17 01:51:39;;;;;;;;;;;;;;;4.28;93.43;102390.97;5031024;27;20851;-68
2022/01/17 01:54:04;;;;;;;;;;;;;;;4.22;94.16;102389.41;5014361;27;20218;-68
2022/01/17 01:56:29;;;;;;;;;;;;;;;4.32;93.81;102397.81;5032458;27;20187;-68
2022/01/17 01:58:55;;;;;;;;;;;;;;;4.39;92.89;102407.16;5029910;27;20238;-68
2022/01/17 02:01:20;;;;;;;;;;;;;;;4.28;93.66;102410.16;5030934;27;19907;-68
2022/01/17 02:03:45;;;;;;;;;;;;;;;4.38;93.02;102425.56;5030792;27;19908;-69
2022/01/17 02:06:10;;;;;;;;;;;;;;;4.27;92.96;102423.31;5049245;27;19903;-68
2022/01/17 02:08:36;;;;;;;;;;;;;;;4.26;93.11;102427.69;5030349;27;20095;-67
2022/01/17 02:11:01;;;;;;;;;;;;;;;4.32;93.38;102444.97;5048926;27;20044;-67
2022/01/17 02:13:26;;;;;;;;;;;;;;;4.27;93.36;102437.28;5049108;27;20619;-69
2022/01/17 02:16:01;;;;;;;;;;;;;;;4.24;93.02;102431.28;5050535;27;20012;-69
2022/01/17 02:18:30;;;;;;;;;;;;;;;4.24;93.62;102407.69;5049611;27;19907;-67
2022/01/17 02:21:11;;;;;;;;;;;;;;;4.27;93.48;102404.97;5050702;27;19907;-69
2022/01/17 02:23:37;;;;;;;;;;;;;;;4.28;93.66;102420.63;5038441;27;20159;-67
2022/01/17 02:26:02;;;;;;;;;;;;;;;4.38;93.57;102399.34;5029056;27;20702;-69
2022/01/17 02:28:27;;;;;;;;;;;;;;;4.29;93.57;102406.63;5031470;27;20852;-69
2022/01/17 02:30:52;;;;;;;;;;;;;;;4.22;93.97;102409.53;5010916;28;19915;-69
2022/01/17 02:33:18;;;;;;;;;;;;;;;4.33;94.07;102410.00;4993613;28;19945;-69
2022/01/17 02:35:47;;;;;;;;;;;;;;;4.31;93.60;102414.44;5030684;27;20020;-67
2022/01/17 02:38:12;;;;;;;;;;;;;;;4.27;93.64;102404.97;5023507;27;20692;-68
2022/01/17 02:40:37;;;;;;;;;;;;;;;4.19;94.75;102399.13;5049041;27;19909;-69
2022/01/17 02:43:05;;;;;;;;;;;;;;;4.32;94.46;102405.66;5029502;27;19903;-69
2022/01/17 02:45:32;;;;;;;;;;;;;;;4.20;94.38;102396.50;5028947;27;20079;-69
2022/01/17 02:47:58;;;;;;;;;;;;;;;4.27;94.98;102397.09;5029918;27;19912;-69
2022/01/17 02:50:23;;;;;;;;;;;;;;;4.40;94.12;102392.28;5032976;27;20391;-69
2022/01/17 02:52:48;;;;;;;;;;;;;;;4.38;93.51;102399.34;5036066;27;19908;-67
2022/01/17 02:55:14;;;;;;;;;;;;;;;4.34;93.67;102403.81;5031213;27;19980;-67
2022/01/17 02:57:39;;;;;;;;;;;;;;;4.30;94.21;102402.22;5033428;27;20201;-67
2022/01/17 03:00:05;;;;;;;;;;;;;;;4.28;94.84;102409.31;5032058;27;19976;-67
2022/01/17 03:02:30;;;;;;;;;;;;;;;4.39;94.94;102415.00;5029827;27;19900;-69
2022/01/17 03:04:55;;;;;;;;;;;;;;;4.46;94.14;102411.25;5029816;27;19904;-67
2022/01/17 03:07:20;;;;;;;;;;;;;;;4.40;94.01;102392.28;5010433;27;20081;-68
2022/01/17 03:10:01;;;;;;;;;;;;;;;4.38;94.37;102389.69;5013884;27;20081;-68
2022/01/17 03:12:26;;;;;;;;;;;;;;;4.37;94.10;102377.53;5032603;27;19904;-67
2022/01/17 03:14:51;;;;;;;;;;;;;;;4.44;94.00;102383.38;5033187;27;20376;-67
2022/01/17 03:17:17;;;;;;;;;;;;;;;4.39;94.45;102388.81;5013299;27;20190;-68
2022/01/17 03:19:42;;;;;;;;;;;;;;;4.38;94.10;102394.09;5030147;27;20054;-68
2022/01/17 03:22:07;;;;;;;;;;;;;;;4.42;94.16;102386.06;5021689;27;19912;-67
2022/01/17 03:24:32;;;;;;;;;;;;;;;4.40;93.84;102387.91;5037126;27;19982;-67
2022/01/17 03:26:57;;;;;;;;;;;;;;;4.46;93.58;102387.66;5051350;27;19911;-66
2022/01/17 03:29:23;;;;;;;;;;;;;;;4.62;93.45;102379.22;5052740;27;21007;-69
2022/01/17 03:31:48;;;;;;;;;;;;;;;4.60;92.34;102388.94;5048793;27;20531;-67
2022/01/17 03:34:13;;;;;;;;;;;;;;;4.51;93.17;102394.50;5049873;27;20269;-70
2022/01/17 03:36:40;;;;;;;;;;;;;;;4.53;93.11;102404.03;5037857;27;20067;-69
2022/01/17 03:39:05;;;;;;;;;;;;;;;4.42;93.76;102396.56;5022170;27;19919;-68
2022/01/17 03:41:31;;;;;;;;;;;;;;;4.43;94.08;102393.03;5031320;27;20276;-69
2022/01/17 03:43:56;;;;;;;;;;;;;;;4.43;93.54;102394.81;5031184;27;20383;-68
2022/01/17 03:46:21;;;;;;;;;;;;;;;4.53;94.19;102387.47;5014300;27;20629;-68
2022/01/17 03:48:46;;;;;;;;;;;;;;;4.44;93.53;102397.38;5014012;27;20772;-68
2022/01/17 03:51:12;;;;;;;;;;;;;;;4.40;94.37;102398.38;5028746;27;19908;-67
2022/01/17 03:53:37;;;;;;;;;;;;;;;4.49;93.71;102412.06;5025765;27;19919;-68
2022/01/17 03:56:02;;;;;;;;;;;;;;;4.65;93.69;102407.94;5009726;28;19908;-67
2022/01/17 03:58:28;;;;;;;;;;;;;;;4.65;93.23;102418.44;5011412;27;19900;-66
2022/01/17 04:00:55;;;;;;;;;;;;;;;4.62;93.57;102426.44;5018179;27;20094;-68
2022/01/17 04:03:20;;;;;;;;;;;;;;;4.66;93.01;102416.69;5021783;27;19900;-68
2022/01/17 04:05:45;;;;;;;;;;;;;;;4.63;93.02;102422.91;5011786;27;19904;-67
2022/01/17 04:08:10;;;;;;;;;;;;;;;4.64;92.63;102422.00;5034039;27;19915;-67
2022/01/17 04:10:35;;;;;;;;;;;;;;;4.63;93.21;102420.28;5031652;27;19915;-67
2022/01/17 04:13:03;;;;;;;;;;;;;;;4.80;92.63;102420.50;5030357;27;20001;-67
2022/01/17 04:15:29;;;;;;;;;;;;;;;4.63;92.91;102429.00;5028283;27;19903;-68
2022/01/17 04:17:54;;;;;;;;;;;;;;;4.63;93.56;102430.75;5030924;27;19908;-70
2022/01/17 04:20:26;;;;;;;;;;;;;;;4.61;93.57;102428.19;5028332;27;19914;-69
2022/01/17 04:22:53;;;;;;;;;;;;;;;4.61;93.32;102427.31;5034649;27;19912;-69
2022/01/17 04:25:19;;;;;;;;;;;;;;;4.57;93.21;102425.72;5031008;27;20124;-70
2022/01/17 04:27:44;;;;;;;;;;;;;;;4.59;92.60;102421.31;5014170;27;19991;-69
2022/01/17 04:30:09;;;;;;;;;;;;;;;4.54;92.90;102426.72;5029030;27;19916;-70
2022/01/17 04:32:35;;;;;;;;;;;;;;;4.50;93.54;102424.25;5021020;27;19915;-68
2022/01/17 04:35:00;;;;;;;;;;;;;;;4.64;93.72;102424.63;5053163;27;20962;-68
2022/01/17 04:37:25;;;;;;;;;;;;;;;4.74;93.01;102418.09;5036274;27;20094;-70
2022/01/17 04:39:50;;;;;;;;;;;;;;;4.67;92.39;102421.88;5019478;27;20512;-69
2022/01/17 04:42:17;;;;;;;;;;;;;;;4.69;92.66;102432.31;5018176;27;20367;-70
2022/01/17 04:47:27;;;;;;;;;;;;;;;4.58;92.57;102436.19;5025011;27;20067;-68
2022/01/17 04:49:52;;;;;;;;;;;;;;;4.55;92.76;102438.06;5031721;27;19920;-70
2022/01/17 04:52:17;;;;;;;;;;;;;;;4.63;93.36;102436.84;5012351;27;19912;-70
2022/01/17 04:54:44;;;;;;;;;;;;;;;4.59;92.93;102437.88;5025200;27;19903;-68
2022/01/17 04:57:11;;;;;;;;;;;;;;;4.62;92.80;102440.38;5009675;27;19967;-69
2022/01/17 04:59:36;;;;;;;;;;;;;;;4.75;92.25;102440.81;5013948;27;19911;-68
2022/01/17 05:02:01;;;;;;;;;;;;;;;4.70;92.34;102445.34;5031713;27;19952;-67
2022/01/17 05:04:27;;;;;;;;;;;;;;;4.78;91.79;102451.19;5011574;27;20522;-71
2022/01/17 05:06:52;;;;;;;;;;;;;;;4.79;91.50;102457.28;5008847;27;19978;-67
2022/01/17 05:09:17;;;;;;;;;;;;;;;4.72;91.50;102464.50;5003182;27;20097;-67
2022/01/17 05:11:43;;;;;;;;;;;;;;;4.78;91.65;102460.78;5028550;27;19911;-70
2022/01/17 05:14:08;;;;;;;;;;;;;;;4.75;90.63;102451.31;5029070;27;19915;-69
2022/01/17 05:16:39;;;;;;;;;;;;;;;4.72;90.79;102446.13;5011725;27;19907;-67
2022/01/17 05:21:48;;;;;;;;;;;;;;;4.71;90.41;102454.94;5026818;27;19919;-69
2022/01/17 05:24:13;;;;;;;;;;;;;;;4.75;90.47;102451.31;5031474;27;19907;-70
2022/01/17 05:26:38;;;;;;;;;;;;;;;4.70;90.28;102449.75;5030291;27;20406;-69
2022/01/17 05:29:04;;;;;;;;;;;;;;;4.75;90.11;102450.41;5028788;27;19972;-68
2022/01/17 05:31:29;;;;;;;;;;;;;;;4.68;90.61;102447.16;5029742;27;20367;-69
2022/01/17 05:33:54;;;;;;;;;;;;;;;4.63;90.51;102457.84;5013504;27;19923;-69
2022/01/17 05:36:19;;;;;;;;;;;;;;;4.60;90.43;102459.72;5003431;28;19922;-69
2022/01/17 05:38:45;;;;;;;;;;;;;;;4.75;90.11;102469.66;5010702;28;20358;-68
2022/01/17 05:41:10;;;;;;;;;;;;;;;4.64;90.58;102469.19;5026599;28;19912;-69
2022/01/17 05:43:35;;;;;;;;;;;;;;;4.66;90.57;102462.13;4990205;28;19923;-68
2022/01/17 05:46:00;;;;;;;;;;;;;;;4.75;90.39;102467.03;5000668;28;19927;-69
2022/01/17 05:48:25;;;;;;;;;;;;;;;4.74;89.59;102478.44;5024176;28;20950;-68
2022/01/17 05:50:51;;;;;;;;;;;;;;;4.75;89.08;102472.28;5028011;27;20235;-69
2022/01/17 05:53:16;;;;;;;;;;;;;;;4.77;88.69;102470.44;5022891;28;19971;-69
2022/01/17 05:55:41;;;;;;;;;;;;;;;4.78;89.02;102472.16;5007027;27;20004;-69
2022/01/17 05:58:06;;;;;;;;;;;;;;;4.74;89.13;102459.22;5035769;28;19900;-68
2022/01/17 06:00:32;;;;;;;;;;;;;;;4.68;88.82;102459.44;5032019;27;20023;-68
2022/01/17 06:02:57;;;;;;;;;;;;;;;4.70;88.97;102447.13;5033165;28;19900;-68
2022/01/17 06:05:22;;;;;;;;;;;;;;;4.69;89.64;102442.78;5033091;27;20818;-67
2022/01/17 06:07:47;;;;;;;;;;;;;;;4.69;89.38;102451.50;5036420;28;20047;-67
2022/01/17 06:10:13;;;;;;;;;;;;;;;4.69;89.05;102464.63;5006305;27;20016;-66
2022/01/17 06:12:38;;;;;;;;;;;;;;;4.72;88.77;102456.63;5030801;28;19926;-68
2022/01/17 06:15:03;;;;;;;;;;;;;;;4.68;89.53;102460.28;5014509;28;20024;-67
2022/01/17 06:17:29;;;;;;;;;;;;;;;4.63;89.74;102449.13;5031639;27;19914;-68
2022/01/17 06:19:54;;;;;;;;;;;;;;;4.69;89.21;102459.38;5034820;27;19912;-68
2022/01/17 06:22:19;;;;;;;;;;;;;;;4.68;88.36;102467.28;5025337;27;20318;-69
2022/01/17 06:24:44;;;;;;;;;;;;;;;4.67;88.65;102462.97;5036469;27;20806;-68
2022/01/17 06:27:10;;;;;;;;;;;;;;;4.63;88.47;102464.84;5033270;27;19952;-69
2022/01/17 06:29:35;;;;;;;;;;;;;;;4.65;89.08;102473.50;5036286;27;20061;-68
2022/01/17 06:32:00;;;;;;;;;;;;;;;4.66;88.70;102475.22;5029244;27;19908;-67
2022/01/17 06:34:25;;;;;;;;;;;;;;;4.68;88.86;102481.25;5045057;27;20045;-68
2022/01/17 06:36:50;;;;;;;;;;;;;;;4.77;88.43;102480.09;5029157;27;19908;-67
2022/01/17 06:39:16;;;;;;;;;;;;;;;4.72;88.40;102468.91;5035578;27;20771;-68
2022/01/17 06:41:41;;;;;;;;;;;;;;;4.81;88.38;102461.56;5014171;27;20877;-70
2022/01/17 06:44:06;;;;;;;;;;;;;;;4.78;87.11;102456.44;5035084;27;20030;-70
2022/01/17 06:46:31;;;;;;;;;;;;;;;4.72;87.83;102451.38;5028551;27;19944;-68
2022/01/17 06:48:57;;;;;;;;;;;;;;;4.75;87.11;102456.53;5035598;27;19923;-68
2022/01/17 06:51:22;;;;;;;;;;;;;;;4.75;86.98;102461.78;5035531;27;20169;-67
2022/01/17 06:53:48;;;;;;;;;;;;;;;4.69;86.91;102446.25;5032608;27;20220;-68
2022/01/17 06:56:13;;;;;;;;;;;;;;;4.77;86.89;102443.38;5043235;27;20120;-68
2022/01/17 06:58:40;;;;;;;;;;;;;;;4.73;86.75;102447.88;5032493;27;19911;-67
2022/01/17 07:01:06;;;;;;;;;;;;;;;4.74;86.72;102454.81;5038595;27;19908;-68
2022/01/17 07:03:31;;;;;;;;;;;;;;;4.78;85.75;102469.53;5020874;27;19918;-68
2022/01/17 07:05:56;;;;;;;;;;;;;;;4.73;86.04;102484.56;5035477;27;19968;-67
2022/01/17 07:08:21;;;;;;;;;;;;;;;4.75;86.63;102493.25;5037660;27;19919;-69
2022/01/17 07:10:47;;;;;;;;;;;;;;;4.78;86.36;102493.16;5032558;27;19923;-69
2022/01/17 07:13:12;;;;;;;;;;;;;;;4.82;85.60;102515.72;5035573;27;20488;-67
2022/01/17 07:15:37;;;;;;;;;;;;;;;4.75;85.68;102524.72;5020197;27;20125;-67
2022/01/17 07:18:02;;;;;;;;;;;;;;;4.72;86.31;102501.22;5035750;27;19948;-68
2022/01/17 07:20:28;;;;;;;;;;;;;;;4.82;86.73;102488.63;4998318;27;19912;-69
2022/01/17 07:22:53;;;;;;;;;;;;;;;4.76;86.01;102478.38;5034480;27;19907;-67
2022/01/17 07:25:18;;;;;;;;;;;;;;;4.74;86.25;102462.69;5017228;27;20800;-66
2022/01/17 07:27:44;;;;;;;;;;;;;;;4.79;86.38;102457.28;5054778;27;19938;-66
2022/01/17 07:30:09;;;;;;;;;;;;;;;4.80;86.19;102457.22;5035560;27;20149;-66
2022/01/17 07:32:35;;;;;;;;;;;;;;;4.91;85.76;102441.09;5016353;27;19903;-66
2022/01/17 07:35:00;;;;;;;;;;;;;;;4.91;85.95;102440.22;5029303;27;20281;-66
2022/01/17 07:37:25;;;;;;;;;;;;;;;4.89;85.93;102442.03;5037754;27;20023;-66
2022/01/17 07:39:51;;;;;;;;;;;;;;;4.88;86.30;102462.19;5040966;27;20044;-68
2022/01/17 07:42:16;;;;;;;;;;;;;;;4.93;86.04;102456.75;5036102;27;20021;-66
2022/01/17 07:44:43;;;;;;;;;;;;;;;4.93;85.81;102456.75;5032073;27;20028;-68
2022/01/17 07:47:16;;;;;;;;;;;;;;;5.01;85.37;102464.34;5028142;27;20788;-67
2022/01/17 07:49:42;;;;;;;;;;;;;;;4.97;85.47;102460.97;5031555;27;19971;-67
2022/01/17 07:52:07;;;;;;;;;;;;;;;4.94;85.01;102469.81;5033008;27;19932;-68
2022/01/17 07:54:33;;;;;;;;;;;;;;;4.97;85.73;102474.09;5035565;27;20359;-65
2022/01/17 07:56:59;;;;;;;;;;;;;;;5.03;85.38;102479.09;5022407;27;19907;-66
2022/01/17 07:59:24;;;;;;;;;;;;;;;5.02;85.36;102469.53;5016486;27;20288;-69
2022/01/17 08:01:50;;;;;;;;;;;;;;;5.14;84.94;102471.69;4997492;27;20654;-65
2022/01/17 08:04:15;;;;;;;;;;;;;;;5.00;85.10;102484.47;5034703;27;19979;-67
2022/01/17 08:06:40;;;;;;;;;;;;;;;5.10;84.99;102483.19;5020197;27;20744;-68
2022/01/17 08:09:07;;;;;;;;;;;;;;;5.08;84.67;102492.06;5047196;27;19919;-68
2022/01/17 08:11:32;;;;;;;;;;;;;;;5.11;84.52;102500.66;5024087;27;20494;-68
2022/01/17 08:13:57;;;;;;;;;;;;;;;5.08;84.63;102499.94;5027943;27;20238;-67
2022/01/17 08:16:23;;;;;;;;;;;;;;;5.28;84.48;102501.81;5035572;27;19947;-67
2022/01/17 08:18:48;;;;;;;;;;;;;;;5.17;84.16;102512.69;5034995;27;20770;-67
2022/01/17 08:21:13;;;;;;;;;;;;;;;5.13;84.94;102519.84;5033775;27;20840;-66
2022/01/17 08:23:38;;;;;;;;;;;;;;;5.11;84.93;102524.28;5012414;27;19912;-66
2022/01/17 08:26:04;;;;;;;;;;;;;;;5.12;84.41;102527.78;5035314;27;20124;-68
2022/01/17 08:28:29;;;;;;;;;;;;;;;5.23;84.25;102522.09;5018756;27;20778;-67
2022/01/17 08:30:54;;;;;;;;;;;;;;;5.21;84.29;102526.56;5031424;27;19915;-67
2022/01/17 08:33:19;;;;;;;;;;;;;;;5.25;84.34;102530.78;5034229;27;20320;-67
2022/01/17 08:35:45;;;;;;;;;;;;;;;5.24;83.75;102529.06;5029695;27;19915;-67
2022/01/17 08:38:10;;;;;;;;;;;;;;;5.27;84.21;102532.44;5043029;27;20752;-68
2022/01/17 08:40:35;;;;;;;;;;;;;;;5.27;83.84;102526.34;5032671;27;19919;-67
2022/01/17 08:43:00;;;;;;;;;;;;;;;5.25;84.26;102523.75;5009886;27;19911;-67
2022/01/17 08:45:26;;;;;;;;;;;;;;;5.30;84.93;102531.47;5036854;27;19934;-68
2022/01/17 08:47:52;;;;;;;;;;;;;;;5.35;84.13;102519.03;5045072;27;20031;-69
2022/01/17 08:50:18;;;;;;;;;;;;;;;5.38;83.53;102518.06;5059700;27;19915;-69
2022/01/17 08:52:43;;;;;;;;;;;;;;;5.35;83.94;102523.44;5053486;27;19975;-68
2022/01/17 08:55:09;;;;;;;;;;;;;;;5.35;84.08;102521.66;5036701;27;20372;-68
2022/01/17 08:57:34;;;;;;;;;;;;;;;5.41;84.05;102534.53;5018070;27;20047;-68
2022/01/17 08:59:59;;;;;;;;;;;;;;;5.59;83.14;102542.63;5038486;27;20028;-68
2022/01/17 09:02:24;;;;;;;;;;;;;;;5.49;84.15;102537.72;5036182;27;19911;-67
2022/01/17 09:04:50;;;;;;;;;;;;;;;5.46;84.52;102552.75;5058332;27;19955;-67
2022/01/17 09:07:15;;;;;;;;;;;;;;;5.50;84.65;102546.47;5036414;27;19986;-66
2022/01/17 09:09:41;;;;;;;;;;;;;;;5.56;84.21;102548.00;5056340;27;20465;-67
2022/01/17 09:12:06;;;;;;;;;;;;;;;5.40;84.76;102563.47;5034705;27;20389;-66
2022/01/17 09:14:31;;;;;;;;;;;;;;;5.48;84.50;102569.28;5056376;27;19914;-67
2022/01/17 09:16:57;;;;;;;;;;;;;;;5.39;85.23;102573.13;5037461;27;20693;-67
2022/01/17 09:19:22;;;;;;;;;;;;;;;5.35;85.58;102578.56;5032596;27;20339;-67
2022/01/17 09:21:47;;;;;;;;;;;;;;;5.35;86.21;102579.41;5057307;27;20506;-67
2022/01/17 09:24:13;;;;;;;;;;;;;;;5.21;85.87;102568.56;5055925;27;20049;-67
2022/01/17 09:26:38;;;;;;;;;;;;;;;5.27;86.70;102563.06;5058172;27;20405;-66
2022/01/17 09:29:03;;;;;;;;;;;;;;;5.24;86.72;102552.69;5036463;27;20118;-67
2022/01/17 09:31:28;;;;;;;;;;;;;;;5.37;86.24;102535.56;5054799;27;19940;-68
2022/01/17 09:33:54;;;;;;;;;;;;;;;5.45;86.48;102528.25;5037603;27;19915;-68
2022/01/17 09:36:19;;;;;;;;;;;;;;;5.48;85.72;102535.16;5035533;27;19907;-68
2022/01/17 09:38:44;;;;;;;;;;;;;;;5.49;85.68;102545.59;5032457;27;20011;-68
2022/01/17 09:41:10;;;;;;;;;;;;;;;5.47;85.99;102565.81;5057622;27;19915;-69
2022/01/17 09:43:36;;;;;;;;;;;;;;;5.58;85.35;102573.25;5033089;28;20388;-68
2022/01/17 09:46:01;;;;;;;;;;;;;;;5.62;85.32;102590.63;5002241;27;19924;-66
2022/01/17 09:48:35;;;;;;;;;;;;;;;5.66;85.39;102601.88;5057919;27;20739;-69
2022/01/17 09:51:15;;;;;;;;;;;;;;;5.63;85.28;102604.63;5056185;27;19911;-68
2022/01/17 09:53:40;;;;;;;;;;;;;;;5.58;86.01;102606.56;5041428;28;19944;-67
2022/01/17 09:56:06;;;;;;;;;;;;;;;5.57;86.26;102623.22;5049059;27;20292;-68
2022/01/17 09:58:32;;;;;;;;;;;;;;;5.62;86.30;102611.63;5023692;27;19907;-68
2022/01/17 10:00:59;;;;;;;;;;;;;;;5.52;86.92;102593.66;5036385;27;20434;-69
2022/01/17 10:03:24;;;;;;;;;;;;;;;5.48;87.33;102620.03;5036005;27;19907;-66
2022/01/17 10:05:49;;;;;;;;;;;;;;;5.47;88.00;102613.06;5023523;27;19915;-67
2022/01/17 10:08:18;;;;;;;;;;;;;;;5.40;87.93;102595.84;5065604;27;19915;-68
2022/01/17 10:11:02;;;;;;;;;;;;;;;5.33;88.91;102600.47;5061933;27;20210;-68
2022/01/17 10:13:28;;;;;;;;;;;;;;;5.43;89.53;102595.72;5068542;27;19907;-68
2022/01/17 10:16:00;;;;;;;;;;;;;;;5.50;89.43;102591.09;5041834;27;19993;-67
2022/01/17 10:18:26;;;;;;;;;;;;;;;5.50;89.68;102591.09;5057041;27;19903;-68
2022/01/17 10:20:57;;;;;;;;;;;;;;;5.43;89.88;102611.47;5049208;27;19915;-67
2022/01/17 10:23:42;;;;;;;;;;;;;;;5.55;89.08;102604.06;5064340;27;19987;-67
2022/01/17 10:26:17;;;;;;;;;;;;;;;5.45;89.68;102609.63;5042338;27;19907;-67
2022/01/17 10:36:55;;;;;;;;;;;;;;;5.62;89.28;102621.28;5042394;27;19927;-68
2022/01/17 10:39:20;;;;;;;;;;;;;;;5.61;89.42;102614.31;5021574;27;20181;-68
2022/01/17 10:41:46;;;;;;;;;;;;;;;5.70;89.63;102624.47;5050906;27;19948;-68
2022/01/17 10:44:11;;;;;;;;;;;;;;;5.67;89.29;102630.72;5046836;27;20776;-65
2022/01/17 10:46:36;;;;;;;;;;;;;;;5.73;89.44;102613.00;5025731;27;19926;-66
2022/01/17 10:49:03;;;;;;;;;;;;;;;5.79;89.42;102597.00;5046408;27;20074;-66
2022/01/17 10:51:34;;;;;;;;;;;;;;;5.89;88.57;102605.38;5043451;27;20415;-66
2022/01/17 10:54:09;;;;;;;;;;;;;;;5.77;88.69;102597.06;5036324;27;20238;-68
2022/01/17 10:56:35;;;;;;;;;;;;;;;5.90;88.41;102604.47;5067045;27;20048;-67
2022/01/17 10:59:01;;;;;;;;;;;;;;;5.88;88.18;102606.28;5029476;27;19989;-68
2022/01/17 11:01:34;;;;;;;;;;;;;;;5.88;87.78;102601.91;5047555;27;19903;-67
2022/01/17 11:03:59;;;;;;;;;;;;;;;5.89;87.95;102626.41;5067262;27;19918;-67
2022/01/17 11:06:24;;;;;;;;;;;;;;;5.80;88.32;102612.69;5062212;27;19953;-66
2022/01/17 11:08:50;;;;;;;;;;;;;;;5.85;88.82;102616.00;5042638;27;20830;-67
2022/01/17 11:11:20;;;;;;;;;;;;;;;5.80;88.69;102615.31;5065128;27;19917;-66
2022/01/17 11:13:48;;;;;;;;;;;;;;;5.79;88.86;102626.75;5043992;27;19908;-66
2022/01/17 11:16:14;;;;;;;;;;;;;;;5.77;90.20;102625.13;5063509;27;19907;-66
2022/01/17 11:18:44;;;;;;;;;;;;;;;5.79;90.54;102613.59;5066290;27;19993;-67
2022/01/17 11:21:11;;;;;;;;;;;;;;;5.78;89.61;102609.28;5045290;27;19915;-67
2022/01/17 11:23:41;;;;;;;;;;;;;;;5.88;89.75;102598.41;5045212;27;19904;-68
2022/01/17 11:26:07;;;;;;;;;;;;;;;5.81;89.67;102585.53;5063086;27;20000;-66
2022/01/17 11:28:33;;;;;;;;;;;;;;;5.81;89.93;102595.16;5048751;27;20257;-70
2022/01/17 11:30:59;;;;;;;;;;;;;;;5.79;89.43;102597.84;5064826;27;20298;-66
2022/01/17 11:33:24;;;;;;;;;;;;;;;5.85;90.37;102599.38;5048851;27;20015;-67
2022/01/17 11:35:52;;;;;;;;;;;;;;;5.92;89.20;102608.75;5043999;27;20713;-66
2022/01/17 11:38:25;;;;;;;;;;;;;;;5.90;89.94;102610.56;5046452;27;20410;-69
2022/01/17 11:40:51;;;;;;;;;;;;;;;5.74;90.31;102609.44;5043426;27;19904;-69
2022/01/17 11:43:17;;;;;;;;;;;;;;;5.82;90.23;102613.50;5029513;27;19907;-67
2022/01/17 11:45:43;;;;;;;;;;;;;;;5.85;90.88;102628.28;5063533;27;19927;-67
2022/01/17 11:48:09;;;;;;;;;;;;;;;5.88;90.45;102627.31;5066286;27;19911;-69
2022/01/17 11:50:36;;;;;;;;;;;;;;;5.92;90.84;102621.03;5028749;27;19911;-67
2022/01/17 11:53:10;;;;;;;;;;;;;;;6.01;90.96;102611.03;5033819;27;19915;-67
2022/01/17 11:55:39;;;;;;;;;;;;;;;5.92;90.88;102610.50;5063367;27;19911;-66
2022/01/17 11:58:21;;;;;;;;;;;;;;;5.89;91.32;102613.25;5062187;27;19906;-70
2022/01/17 12:00:46;;;;;;;;;;;;;;;5.82;91.85;102616.13;5064920;27;19907;-67
2022/01/17 12:03:15;;;;;;;;;;;;;;;5.83;91.49;102604.69;5066843;27;20868;-67
2022/01/17 12:05:42;;;;;;;;;;;;;;;5.78;91.45;102609.28;5026966;27;20333;-67
2022/01/17 12:08:09;;;;;;;;;;;;;;;5.87;90.95;102605.44;5043569;27;19923;-66
2022/01/17 12:10:42;;;;;;;;;;;;;;;5.88;91.72;102601.03;5039549;27;19916;-67
2022/01/17 12:13:10;;;;;;;;;;;;;;;5.90;90.85;102588.72;5042276;27;20609;-68
2022/01/17 12:15:54;;;;;;;;;;;;;;;5.85;91.28;102576.59;5067106;27;19954;-67
2022/01/17 12:18:33;;;;;;;;;;;;;;;5.81;91.54;102569.75;5065322;27;20031;-67
2022/01/17 12:21:17;;;;;;;;;;;;;;;5.77;91.66;102581.31;5025152;27;19915;-68
2022/01/17 12:23:42;;;;;;;;;;;;;;;5.78;91.86;102611.03;5041457;27;19956;-66
2022/01/17 12:26:27;;;;;;;;;;;;;;;5.75;91.98;102633.03;5045416;27;20011;-68
2022/01/17 12:28:56;;;;;;;;;;;;;;;5.77;92.71;102625.13;5063878;27;19914;-68
2022/01/17 12:31:40;;;;;;;;;;;;;;;5.95;91.98;102618.25;5040662;27;19923;-67
2022/01/17 12:34:15;;;;;;;;;;;;;;;5.83;92.36;102603.84;5043320;27;20856;-68
2022/01/17 12:36:41;;;;;;;;;;;;;;;5.93;92.19;102609.59;5045834;27;19948;-67
2022/01/17 12:39:20;;;;;;;;;;;;;;;5.82;92.09;102623.16;5061261;27;20928;-67
2022/01/17 12:41:47;;;;;;;;;;;;;;;5.85;92.66;102628.28;5046166;27;20049;-67
2022/01/17 12:44:12;;;;;;;;;;;;;;;5.85;92.12;102623.91;5028042;27;19907;-67
2022/01/17 12:46:37;;;;;;;;;;;;;;;5.96;91.38;102609.47;5068737;27;19927;-68
2022/01/17 12:49:02;;;;;;;;;;;;;;;6.06;91.53;102616.09;5059319;27;19976;-68
2022/01/17 12:51:28;;;;;;;;;;;;;;;5.97;91.29;102622.56;5059307;27;20348;-68
2022/01/17 12:53:53;;;;;;;;;;;;;;;5.90;91.81;102607.09;5024230;27;19914;-68
2022/01/17 12:56:19;;;;;;;;;;;;;;;6.01;91.89;102597.91;5046689;27;19903;-67
2022/01/17 12:58:44;;;;;;;;;;;;;;;5.85;91.61;102620.41;5047315;27;19933;-68
2022/01/17 13:01:10;;;;;;;;;;;;;;;5.93;92.21;102609.59;5057690;27;19968;-67
2022/01/17 13:03:36;;;;;;;;;;;;;;;5.97;91.75;102616.44;5050147;27;20080;-67
2022/01/17 13:06:07;;;;;;;;;;;;;;;5.89;91.70;102627.25;5064291;27;20286;-68
2022/01/17 13:08:32;;;;;;;;;;;;;;;5.83;92.71;102638.00;5038318;27;20032;-67